createdAt,value
2022-08-09T00:00:00.121Z,15.20
2022-08-09T00:06:18.497Z,15.00
2022-08-09T00:10:35.604Z,15.10
2022-08-09T00:15:58.790Z,14.80
2022-08-09T00:21:05.116Z,14.70
2022-08-09T00:26:11.351Z,14.50
2022-08-09T00:31:57.140Z,14.40
2022-08-09T00:36:37.151Z,14.30
2022-08-09T00:44:15.930Z,14.30
2022-08-09T00:47:05.635Z,14.10
2022-08-09T00:52:17.304Z,14.10
2022-08-09T00:57:33.897Z,14.00
2022-08-09T01:02:43.095Z,14.00
2022-08-09T01:08:11.495Z,14.00
2022-08-09T01:13:59.586Z,14.00
2022-08-09T01:19:39.999Z,14.00
2022-08-09T01:25:07.724Z,14.00
2022-08-09T01:30:33.747Z,14.00
2022-08-09T01:36:03.943Z,14.10
2022-08-09T01:41:14.130Z,14.10
2022-08-09T01:46:24.790Z,14.10
2022-08-09T01:51:32.174Z,13.90
2022-08-09T01:56:39.718Z,13.90
2022-08-09T02:01:59.442Z,13.90
2022-08-09T02:07:15.405Z,13.80
2022-08-09T02:12:23.614Z,13.80
2022-08-09T02:18:09.300Z,13.80
2022-08-09T02:22:58.074Z,13.80
2022-08-09T02:28:09.989Z,13.80
2022-08-09T02:33:18.617Z,13.80
2022-08-09T02:38:28.799Z,13.80
2022-08-09T02:43:42.556Z,13.70
2022-08-09T02:49:06.075Z,13.70
2022-08-09T02:54:16.060Z,13.60
2022-08-09T02:59:26.634Z,13.60
2022-08-09T03:04:40.966Z,13.60
2022-08-09T03:09:56.301Z,13.70
2022-08-09T03:15:00.071Z,13.60
2022-08-09T03:20:11.258Z,13.80
2022-08-09T03:25:26.851Z,13.80
2022-08-09T03:30:38.133Z,13.90
2022-08-09T03:36:11.237Z,14.00
2022-08-09T03:41:05.130Z,14.00
2022-08-09T03:46:20.084Z,13.90
2022-08-09T03:51:57.792Z,14.10
2022-08-09T03:56:54.929Z,14.20
2022-08-09T04:02:01.748Z,14.20
2022-08-09T04:07:05.129Z,14.40
2022-08-09T04:12:11.955Z,14.60
2022-08-09T04:17:33.078Z,14.80
2022-08-09T04:22:36.297Z,15.10
2022-08-09T04:27:49.021Z,15.40
2022-08-09T04:32:54.215Z,15.60
2022-08-09T04:37:57.058Z,15.70
2022-08-09T04:42:59.745Z,15.80
2022-08-09T04:48:07.974Z,15.90
2022-08-09T04:53:13.898Z,16.20
2022-08-09T04:58:16.751Z,16.40
2022-08-09T05:03:40.190Z,16.50
2022-08-09T05:08:43.881Z,16.60
2022-08-09T05:13:50.656Z,16.80
2022-08-09T05:18:59.902Z,17.10
2022-08-09T05:24:04.661Z,17.30
2022-08-09T05:29:17.464Z,17.70
2022-08-09T05:34:20.782Z,17.90
2022-08-09T05:39:28.872Z,17.90
2022-08-09T05:44:34.804Z,17.80
2022-08-09T05:50:25.211Z,18.20
2022-08-09T05:55:03.107Z,18.20
2022-08-09T06:00:11.286Z,18.60
2022-08-09T06:05:17.204Z,18.70
2022-08-09T06:10:20.266Z,19.10
2022-08-09T06:15:23.120Z,18.90
2022-08-09T06:20:30.203Z,19.60
2022-08-09T06:25:34.466Z,19.70
2022-08-09T06:30:37.370Z,20.10
2022-08-09T06:35:57.726Z,20.40
2022-08-09T06:41:01.089Z,20.50
2022-08-09T06:46:11.015Z,20.80
2022-08-09T06:51:16.508Z,21.10
2022-08-09T06:56:19.550Z,21.10
2022-08-09T07:01:24.156Z,21.30
2022-08-09T07:06:30.742Z,21.50
2022-08-09T07:11:52.155Z,21.80
2022-08-09T07:16:58.538Z,21.90
2022-08-09T07:22:02.110Z,22.10
2022-08-09T07:27:15.486Z,22.00
2022-08-09T07:32:32.273Z,22.10
2022-08-09T07:37:43.839Z,22.30
2022-08-09T07:42:54.520Z,22.70
2022-08-09T07:48:01.712Z,22.60
2022-08-09T07:53:08.309Z,22.30
2022-08-09T07:58:13.126Z,22.60
2022-08-09T08:03:16.322Z,22.70
2022-08-09T08:09:01.359Z,23.30
2022-08-09T08:13:56.525Z,23.40
2022-08-09T08:19:02.628Z,23.40
2022-08-09T08:24:11.723Z,23.60
2022-08-09T08:29:15.421Z,23.70
2022-08-09T08:34:25.409Z,23.60
2022-08-09T08:39:28.772Z,23.30
2022-08-09T08:44:36.691Z,23.70
2022-08-09T08:49:48.272Z,23.80
2022-08-09T08:55:01.298Z,23.40
2022-08-09T09:00:20.484Z,24.10
2022-08-09T09:05:32.908Z,24.90
2022-08-09T09:10:49.586Z,25.40
2022-08-09T09:15:54.570Z,24.20
2022-08-09T09:20:58.216Z,25.20
2022-08-09T09:26:11.892Z,26.00
2022-08-09T09:32:04.361Z,27.50
2022-08-09T09:36:51.010Z,26.90
2022-08-09T09:41:58.571Z,27.10
2022-08-09T09:47:17.063Z,25.60
2022-08-09T09:52:37.477Z,26.30
2022-08-09T09:58:19.137Z,26.20
2022-08-09T10:03:39.912Z,27.60
2022-08-09T10:08:54.735Z,27.60
2022-08-09T10:13:58.561Z,28.30
2022-08-09T10:19:08.418Z,28.00
2022-08-09T10:24:15.960Z,27.30
2022-08-09T10:30:22.784Z,27.50
2022-08-09T10:34:52.903Z,27.80
2022-08-09T10:39:57.005Z,27.90
2022-08-09T10:45:12.265Z,28.00
2022-08-09T10:51:04.174Z,28.90
2022-08-09T10:56:23.526Z,29.10
2022-08-09T11:03:17.901Z,27.70
2022-08-09T11:07:01.725Z,27.50
2022-08-09T11:12:30.265Z,28.00
2022-08-09T11:17:34.604Z,28.10
2022-08-09T11:22:44.960Z,26.30
2022-08-09T11:28:08.386Z,29.20
2022-08-09T11:33:17.828Z,27.50
2022-08-09T11:38:41.299Z,28.70
2022-08-09T11:43:49.295Z,29.50
2022-08-09T11:48:59.220Z,29.40
2022-08-09T11:54:28.581Z,29.10
2022-08-09T11:59:37.996Z,28.80
2022-08-09T12:04:41.678Z,27.10
2022-08-09T12:09:51.001Z,25.90
2022-08-09T12:15:07.838Z,28.30
2022-08-09T12:20:22.155Z,28.40
2022-08-09T12:25:36.210Z,29.10
2022-08-09T12:30:40.927Z,29.00
2022-08-09T12:35:44.336Z,29.40
2022-08-09T12:40:52.839Z,30.10
2022-08-09T12:45:59.979Z,30.70
2022-08-09T12:51:04.843Z,29.40
2022-08-09T12:56:43.061Z,29.20
2022-08-09T13:01:46.997Z,29.10
2022-08-09T13:06:54.093Z,28.10
2022-08-09T13:12:03.376Z,27.80
2022-08-09T13:17:16.172Z,27.10
2022-08-09T13:22:35.529Z,26.60
2022-08-09T13:27:56.032Z,26.90
2022-08-09T13:32:59.221Z,27.80
2022-08-09T13:38:03.400Z,29.90
2022-08-09T13:43:09.950Z,29.70
2022-08-09T13:48:14.780Z,27.50
2022-08-09T13:53:18.578Z,26.20
2022-08-09T13:58:21.307Z,26.30
2022-08-09T14:04:02.307Z,26.40
2022-08-09T14:08:47.099Z,26.60
2022-08-09T14:14:22.088Z,27.50
2022-08-09T14:19:12.900Z,28.70
2022-08-09T14:24:22.166Z,29.20
2022-08-09T14:30:34.408Z,29.00
2022-08-09T14:34:58.603Z,28.00
2022-08-09T14:40:01.530Z,28.70
2022-08-09T14:46:38.894Z,28.90
2022-08-09T14:50:33.219Z,28.60
2022-08-09T14:55:37.461Z,28.50
2022-08-09T15:00:48.191Z,29.00
2022-08-09T15:05:59.759Z,28.50
2022-08-09T15:11:07.292Z,27.30
2022-08-09T15:16:10.559Z,25.70
2022-08-09T15:21:55.733Z,25.70
2022-08-09T15:26:36.948Z,25.50
2022-08-09T15:31:48.670Z,24.90
2022-08-09T15:36:52.486Z,24.90
2022-08-09T15:41:55.419Z,24.70
2022-08-09T15:46:58.329Z,24.30
2022-08-09T15:52:04.113Z,24.20
2022-08-09T15:57:09.372Z,24.30
2022-08-09T16:02:13.371Z,24.30
2022-08-09T16:07:16.392Z,24.30
2022-08-09T16:12:20.109Z,24.20
2022-08-09T16:17:22.930Z,24.10
2022-08-09T16:22:31.869Z,24.10
2022-08-09T16:27:36.280Z,24.10
2022-08-09T16:32:57.870Z,24.00
2022-08-09T16:38:01.079Z,23.90
2022-08-09T16:43:04.800Z,23.80
2022-08-09T16:48:41.537Z,23.70
2022-08-09T16:53:34.133Z,23.90
2022-08-09T16:58:42.483Z,24.30
2022-08-09T17:03:53.596Z,24.40
2022-08-09T17:09:03.029Z,24.50
2022-08-09T17:14:26.038Z,24.30
2022-08-09T17:20:04.969Z,23.90
2022-08-09T17:24:56.062Z,23.50
2022-08-09T17:30:12.631Z,23.20
2022-08-09T17:35:17.658Z,22.90
2022-08-09T17:40:21.153Z,22.70
2022-08-09T17:45:45.536Z,22.50
2022-08-09T17:50:56.246Z,22.20
2022-08-09T17:56:03.310Z,21.70
2022-08-09T18:01:15.636Z,21.30
2022-08-09T18:06:32.471Z,20.80
2022-08-09T18:12:05.691Z,20.40
2022-08-09T18:17:01.910Z,20.10
2022-08-09T18:22:06.458Z,19.60
2022-08-09T18:28:02.438Z,19.30
2022-08-09T18:32:42.404Z,19.00
2022-08-09T18:37:48.819Z,18.50
2022-08-09T18:42:57.909Z,18.30
2022-08-09T18:48:02.917Z,18.20
2022-08-09T18:53:13.420Z,18.10
2022-08-09T18:58:22.088Z,18.00
2022-08-09T19:04:01.035Z,17.80
2022-08-09T19:09:02.602Z,17.70
2022-08-09T19:14:07.093Z,17.60
2022-08-09T19:19:23.613Z,17.40
2022-08-09T19:24:39.790Z,17.40
2022-08-09T19:30:23.790Z,17.20
2022-08-09T19:35:16.938Z,17.10
2022-08-09T19:40:20.427Z,17.00
2022-08-09T19:45:23.197Z,16.70
2022-08-09T19:50:49.207Z,16.70
2022-08-09T19:56:01.968Z,16.60
2022-08-09T20:01:11.501Z,16.40
2022-08-09T20:06:23.786Z,16.10
2022-08-09T20:11:33.835Z,15.80
2022-08-09T20:16:54.029Z,15.70
2022-08-09T20:22:00.082Z,15.60
2022-08-09T20:27:08.119Z,15.50
2022-08-09T20:32:30.393Z,15.30
2022-08-09T20:38:19.437Z,15.30
2022-08-09T20:43:00.201Z,15.10
2022-08-09T20:48:21.622Z,14.90
2022-08-09T20:53:35.330Z,14.90
2022-08-09T20:58:43.520Z,14.70
2022-08-09T21:05:48.546Z,14.80
2022-08-09T21:09:14.179Z,14.80
2022-08-09T21:14:19.328Z,14.60
2022-08-09T21:20:18.755Z,14.50
2022-08-09T21:25:05.323Z,14.40
2022-08-09T21:30:09.843Z,14.20
2022-08-09T21:35:13.592Z,14.00
2022-08-09T21:40:21.965Z,14.00
2022-08-09T21:45:32.861Z,13.80
2022-08-09T21:50:46.657Z,13.90
2022-08-09T21:55:53.948Z,13.70
2022-08-09T22:00:57.427Z,13.60
2022-08-09T22:06:00.373Z,13.70
2022-08-09T22:11:50.591Z,13.50
2022-08-09T22:16:26.064Z,13.40
2022-08-09T22:21:49.631Z,13.40
2022-08-09T22:26:53.670Z,13.30
2022-08-09T22:31:58.014Z,13.30
2022-08-09T22:37:01.066Z,13.30
2022-08-09T22:42:16.138Z,13.20
2022-08-09T22:48:12.671Z,13.30
2022-08-09T22:52:49.212Z,13.30
2022-08-09T22:58:00.532Z,13.10
2022-08-09T23:03:03.615Z,13.10
2022-08-09T23:08:34.371Z,12.90
2022-08-09T23:13:37.544Z,12.70
2022-08-09T23:18:45.295Z,12.70
2022-08-09T23:24:04.160Z,12.60
2022-08-09T23:29:14.018Z,12.60
2022-08-09T23:34:16.985Z,12.60
2022-08-09T23:39:19.715Z,12.50
2022-08-09T23:44:22.480Z,12.40
2022-08-09T23:49:26.291Z,12.40
2022-08-09T23:54:28.944Z,12.40
2022-08-09T23:59:50.604Z,12.40
